sensor_id;sensor_type;location;lat;lon;timestamp;pressure;altitude;pressure_sealevel;temperature
72405;BMP280;60395;52.020;113.548;2022-11-25T00:01:10;92379.19;;;-10.85
72405;BMP280;60395;52.020;113.548;2022-11-25T00:04:16;92387.91;;;-10.88
72405;BMP280;60395;52.020;113.548;2022-11-25T00:07:19;92388.16;;;-10.94
72405;BMP280;60395;52.020;113.548;2022-11-25T00:10:22;92381.22;;;-10.93
72405;BMP280;60395;52.020;113.548;2022-11-25T00:13:25;92382.31;;;-10.96
72405;BMP280;60395;52.020;113.548;2022-11-25T00:16:28;92380.56;;;-11.04
72405;BMP280;60395;52.020;113.548;2022-11-25T00:19:31;92393.16;;;-11.06
72405;BMP280;60395;52.020;113.548;2022-11-25T00:22:35;92392.09;;;-11.12
72405;BMP280;60395;52.020;113.548;2022-11-25T00:25:38;92395.03;;;-11.16
72405;BMP280;60395;52.020;113.548;2022-11-25T00:28:43;92404.88;;;-11.10
72405;BMP280;60395;52.020;113.548;2022-11-25T00:31:46;92395.16;;;-11.04
72405;BMP280;60395;52.020;113.548;2022-11-25T00:34:49;92404.72;;;-11.02
72405;BMP280;60395;52.020;113.548;2022-11-25T00:37:53;92402.19;;;-11.02
72405;BMP280;60395;52.020;113.548;2022-11-25T00:40:56;92412.06;;;-10.97
72405;BMP280;60395;52.020;113.548;2022-11-25T00:44:18;92412.81;;;-10.85
72405;BMP280;60395;52.020;113.548;2022-11-25T00:47:41;92417.47;;;-10.72
72405;BMP280;60395;52.020;113.548;2022-11-25T00:50:44;92419.53;;;-10.58
72405;BMP280;60395;52.020;113.548;2022-11-25T00:53:47;92424.75;;;-10.56
72405;BMP280;60395;52.020;113.548;2022-11-25T00:56:57;92423.13;;;-10.52
72405;BMP280;60395;52.020;113.548;2022-11-25T01:00:00;92407.00;;;-10.56
72405;BMP280;60395;52.020;113.548;2022-11-25T01:03:03;92414.63;;;-10.56
72405;BMP280;60395;52.020;113.548;2022-11-25T01:06:09;92417.56;;;-10.60
72405;BMP280;60395;52.020;113.548;2022-11-25T01:09:12;92416.22;;;-10.61
72405;BMP280;60395;52.020;113.548;2022-11-25T01:12:16;92420.22;;;-10.58
72405;BMP280;60395;52.020;113.548;2022-11-25T01:15:19;92429.97;;;-10.54
72405;BMP280;60395;52.020;113.548;2022-11-25T01:18:22;92428.34;;;-10.50
72405;BMP280;60395;52.020;113.548;2022-11-25T01:21:30;92429.13;;;-10.47
72405;BMP280;60395;52.020;113.548;2022-11-25T01:24:34;92429.94;;;-10.45
72405;BMP280;60395;52.020;113.548;2022-11-25T01:27:37;92426.66;;;-10.36
72405;BMP280;60395;52.020;113.548;2022-11-25T01:30:44;92432.13;;;-10.29
72405;BMP280;60395;52.020;113.548;2022-11-25T01:33:52;92440.25;;;-10.21
72405;BMP280;60395;52.020;113.548;2022-11-25T01:36:56;92436.09;;;-10.17
72405;BMP280;60395;52.020;113.548;2022-11-25T01:39:59;92439.97;;;-10.16
72405;BMP280;60395;52.020;113.548;2022-11-25T01:43:02;92433.25;;;-10.11
72405;BMP280;60395;52.020;113.548;2022-11-25T01:46:11;92436.38;;;-10.01
72405;BMP280;60395;52.020;113.548;2022-11-25T01:52:39;92443.66;;;-9.86
72405;BMP280;60395;52.020;113.548;2022-11-25T01:55:50;92441.63;;;-9.78
72405;BMP280;60395;52.020;113.548;2022-11-25T01:58:54;92425.25;;;-9.75
72405;BMP280;60395;52.020;113.548;2022-11-25T02:01:57;92424.41;;;-9.68
72405;BMP280;60395;52.020;113.548;2022-11-25T02:05:03;92417.78;;;-9.73
72405;BMP280;60395;52.020;113.548;2022-11-25T02:08:09;92418.84;;;-9.76
72405;BMP280;60395;52.020;113.548;2022-11-25T02:11:13;92420.63;;;-9.78
72405;BMP280;60395;52.020;113.548;2022-11-25T02:14:19;92415.91;;;-9.72
72405;BMP280;60395;52.020;113.548;2022-11-25T02:17:25;92423.63;;;-9.70
72405;BMP280;60395;52.020;113.548;2022-11-25T02:20:29;92430.34;;;-9.75
72405;BMP280;60395;52.020;113.548;2022-11-25T02:23:51;92433.03;;;-9.73
72405;BMP280;60395;52.020;113.548;2022-11-25T02:26:57;92431.53;;;-9.76
72405;BMP280;60395;52.020;113.548;2022-11-25T02:30:00;92443.03;;;-9.75
72405;BMP280;60395;52.020;113.548;2022-11-25T02:33:03;92438.22;;;-9.71
72405;BMP280;60395;52.020;113.548;2022-11-25T02:36:12;92440.09;;;-9.71
72405;BMP280;60395;52.020;113.548;2022-11-25T02:39:17;92441.72;;;-9.76
72405;BMP280;60395;52.020;113.548;2022-11-25T02:42:20;92439.13;;;-9.66
72405;BMP280;60395;52.020;113.548;2022-11-25T02:45:50;92431.41;;;-9.56
72405;BMP280;60395;52.020;113.548;2022-11-25T02:48:57;92430.50;;;-9.40
72405;BMP280;60395;52.020;113.548;2022-11-25T02:52:16;92426.13;;;-9.27
72405;BMP280;60395;52.020;113.548;2022-11-25T02:55:19;92425.56;;;-9.26
72405;BMP280;60395;52.020;113.548;2022-11-25T02:58:22;92424.22;;;-9.27
72405;BMP280;60395;52.020;113.548;2022-11-25T03:01:27;92426.44;;;-9.21
72405;BMP280;60395;52.020;113.548;2022-11-25T03:04:31;92423.50;;;-9.18
72405;BMP280;60395;52.020;113.548;2022-11-25T03:07:34;92423.72;;;-9.14
72405;BMP280;60395;52.020;113.548;2022-11-25T03:10:38;92417.78;;;-9.07
72405;BMP280;60395;52.020;113.548;2022-11-25T03:13:41;92409.81;;;-9.01
72405;BMP280;60395;52.020;113.548;2022-11-25T03:16:45;92410.91;;;-8.93
72405;BMP280;60395;52.020;113.548;2022-11-25T03:19:48;92412.25;;;-8.92
72405;BMP280;60395;52.020;113.548;2022-11-25T03:22:52;92408.06;;;-8.87
72405;BMP280;60395;52.020;113.548;2022-11-25T03:25:57;92413.47;;;-8.81
72405;BMP280;60395;52.020;113.548;2022-11-25T03:29:01;92414.03;;;-8.71
72405;BMP280;60395;52.020;113.548;2022-11-25T03:32:04;92417.38;;;-8.80
72405;BMP280;60395;52.020;113.548;2022-11-25T03:35:13;92419.56;;;-8.86
72405;BMP280;60395;52.020;113.548;2022-11-25T03:38:17;92414.66;;;-8.94
72405;BMP280;60395;52.020;113.548;2022-11-25T03:41:20;92415.34;;;-8.93
72405;BMP280;60395;52.020;113.548;2022-11-25T03:44:24;92416.66;;;-8.92
72405;BMP280;60395;52.020;113.548;2022-11-25T03:47:27;92424.44;;;-8.90
72405;BMP280;60395;52.020;113.548;2022-11-25T03:50:31;92419.66;;;-8.96
72405;BMP280;60395;52.020;113.548;2022-11-25T03:53:34;92408.81;;;-8.96
72405;BMP280;60395;52.020;113.548;2022-11-25T03:56:40;92404.50;;;-8.82
72405;BMP280;60395;52.020;113.548;2022-11-25T03:59:44;92413.69;;;-8.65
72405;BMP280;60395;52.020;113.548;2022-11-25T04:02:48;92412.38;;;-8.66
72405;BMP280;60395;52.020;113.548;2022-11-25T04:05:52;92412.94;;;-8.68
72405;BMP280;60395;52.020;113.548;2022-11-25T04:08:57;92415.69;;;-8.64
72405;BMP280;60395;52.020;113.548;2022-11-25T04:12:00;92411.94;;;-8.63
72405;BMP280;60395;52.020;113.548;2022-11-25T04:15:33;92416.16;;;-8.56
72405;BMP280;60395;52.020;113.548;2022-11-25T04:18:36;92413.38;;;-8.48
72405;BMP280;60395;52.020;113.548;2022-11-25T04:21:39;92421.00;;;-8.48
72405;BMP280;60395;52.020;113.548;2022-11-25T04:24:42;92409.72;;;-8.45
72405;BMP280;60395;52.020;113.548;2022-11-25T04:27:48;92405.41;;;-8.54
72405;BMP280;60395;52.020;113.548;2022-11-25T04:30:57;92398.00;;;-8.62
72405;BMP280;60395;52.020;113.548;2022-11-25T04:34:01;92394.91;;;-8.60
72405;BMP280;60395;52.020;113.548;2022-11-25T04:37:05;92386.81;;;-8.68
72405;BMP280;60395;52.020;113.548;2022-11-25T04:40:09;92384.94;;;-8.79
72405;BMP280;60395;52.020;113.548;2022-11-25T04:43:12;92387.03;;;-8.87
72405;BMP280;60395;52.020;113.548;2022-11-25T04:46:33;92396.75;;;-8.96
72405;BMP280;60395;52.020;113.548;2022-11-25T04:49:38;92390.22;;;-8.99
72405;BMP280;60395;52.020;113.548;2022-11-25T04:52:42;92382.25;;;-9.05
72405;BMP280;60395;52.020;113.548;2022-11-25T04:55:45;92378.28;;;-9.08
72405;BMP280;60395;52.020;113.548;2022-11-25T04:58:49;92384.34;;;-9.13
72405;BMP280;60395;52.020;113.548;2022-11-25T05:02:20;92377.63;;;-9.08
72405;BMP280;60395;52.020;113.548;2022-11-25T05:05:49;92379.16;;;-9.15
72405;BMP280;60395;52.020;113.548;2022-11-25T05:08:52;92380.59;;;-9.12
72405;BMP280;60395;52.020;113.548;2022-11-25T05:12:00;92387.78;;;-9.08
72405;BMP280;60395;52.020;113.548;2022-11-25T05:15:03;92372.75;;;-9.04
72405;BMP280;60395;52.020;113.548;2022-11-25T05:18:22;92379.72;;;-8.93
72405;BMP280;60395;52.020;113.548;2022-11-25T05:21:26;92372.53;;;-8.97
72405;BMP280;60395;52.020;113.548;2022-11-25T05:24:29;92372.19;;;-9.03
72405;BMP280;60395;52.020;113.548;2022-11-25T05:28:06;92366.03;;;-9.00
72405;BMP280;60395;52.020;113.548;2022-11-25T05:39:22;92366.22;;;-9.07
72405;BMP280;60395;52.020;113.548;2022-11-25T05:43:38;92365.69;;;-9.06
72405;BMP280;60395;52.020;113.548;2022-11-25T05:47:27;92368.66;;;-8.98
72405;BMP280;60395;52.020;113.548;2022-11-25T05:50:31;92369.13;;;-8.89
72405;BMP280;60395;52.020;113.548;2022-11-25T05:55:02;92368.34;;;-8.80
72405;BMP280;60395;52.020;113.548;2022-11-25T05:58:38;92361.81;;;-8.83
72405;BMP280;60395;52.020;113.548;2022-11-25T06:01:41;92365.94;;;-8.90
72405;BMP280;60395;52.020;113.548;2022-11-25T06:04:44;92361.34;;;-8.92
72405;BMP280;60395;52.020;113.548;2022-11-25T06:07:47;92360.03;;;-8.93
72405;BMP280;60395;52.020;113.548;2022-11-25T06:11:09;92362.91;;;-8.98
72405;BMP280;60395;52.020;113.548;2022-11-25T06:14:42;92358.69;;;-8.94
72405;BMP280;60395;52.020;113.548;2022-11-25T06:17:45;92364.25;;;-8.85
72405;BMP280;60395;52.020;113.548;2022-11-25T06:20:56;92362.25;;;-8.87
72405;BMP280;60395;52.020;113.548;2022-11-25T06:24:01;92367.34;;;-8.87
72405;BMP280;60395;52.020;113.548;2022-11-25T06:27:05;92357.28;;;-8.85
72405;BMP280;60395;52.020;113.548;2022-11-25T06:30:09;92357.16;;;-8.87
72405;BMP280;60395;52.020;113.548;2022-11-25T06:33:19;92360.38;;;-8.86
72405;BMP280;60395;52.020;113.548;2022-11-25T06:36:23;92368.88;;;-8.94
72405;BMP280;60395;52.020;113.548;2022-11-25T06:39:26;92361.25;;;-8.94
72405;BMP280;60395;52.020;113.548;2022-11-25T06:42:29;92373.22;;;-8.96
72405;BMP280;60395;52.020;113.548;2022-11-25T06:45:32;92382.38;;;-9.03
72405;BMP280;60395;52.020;113.548;2022-11-25T06:48:36;92375.94;;;-9.04
72405;BMP280;60395;52.020;113.548;2022-11-25T06:51:39;92373.88;;;-9.07
72405;BMP280;60395;52.020;113.548;2022-11-25T06:54:42;92375.50;;;-9.12
72405;BMP280;60395;52.020;113.548;2022-11-25T06:57:46;92376.50;;;-9.17
72405;BMP280;60395;52.020;113.548;2022-11-25T07:00:49;92385.91;;;-9.08
72405;BMP280;60395;52.020;113.548;2022-11-25T07:03:55;92388.72;;;-8.80
72405;BMP280;60395;52.020;113.548;2022-11-25T07:06:59;92389.56;;;-8.64
72405;BMP280;60395;52.020;113.548;2022-11-25T07:10:03;92386.16;;;-8.69
72405;BMP280;60395;52.020;113.548;2022-11-25T07:13:06;92393.91;;;-8.90
72405;BMP280;60395;52.020;113.548;2022-11-25T07:16:10;92391.84;;;-9.15
72405;BMP280;60395;52.020;113.548;2022-11-25T07:19:14;92397.50;;;-9.28
72405;BMP280;60395;52.020;113.548;2022-11-25T07:22:17;92381.66;;;-9.38
72405;BMP280;60395;52.020;113.548;2022-11-25T07:25:20;92386.84;;;-9.36
72405;BMP280;60395;52.020;113.548;2022-11-25T07:28:31;92385.59;;;-9.47
72405;BMP280;60395;52.020;113.548;2022-11-25T07:31:37;92366.69;;;-9.55
72405;BMP280;60395;52.020;113.548;2022-11-25T07:34:41;92387.28;;;-9.73
72405;BMP280;60395;52.020;113.548;2022-11-25T07:37:44;92397.38;;;-9.84
72405;BMP280;60395;52.020;113.548;2022-11-25T07:40:47;92389.53;;;-9.88
72405;BMP280;60395;52.020;113.548;2022-11-25T07:43:55;92404.66;;;-9.90
72405;BMP280;60395;52.020;113.548;2022-11-25T07:46:59;92405.50;;;-9.98
72405;BMP280;60395;52.020;113.548;2022-11-25T07:50:02;92410.78;;;-10.05
72405;BMP280;60395;52.020;113.548;2022-11-25T07:53:05;92408.53;;;-10.11
72405;BMP280;60395;52.020;113.548;2022-11-25T07:56:08;92404.59;;;-10.23
72405;BMP280;60395;52.020;113.548;2022-11-25T07:59:15;92402.88;;;-10.30
72405;BMP280;60395;52.020;113.548;2022-11-25T08:02:18;92407.47;;;-10.39
72405;BMP280;60395;52.020;113.548;2022-11-25T08:05:21;92411.09;;;-10.51
72405;BMP280;60395;52.020;113.548;2022-11-25T08:08:24;92419.19;;;-10.64
72405;BMP280;60395;52.020;113.548;2022-11-25T08:11:29;92406.38;;;-10.76
72405;BMP280;60395;52.020;113.548;2022-11-25T08:14:33;92406.03;;;-10.82
72405;BMP280;60395;52.020;113.548;2022-11-25T08:17:37;92420.19;;;-10.89
72405;BMP280;60395;52.020;113.548;2022-11-25T08:20:39;92427.81;;;-10.98
72405;BMP280;60395;52.020;113.548;2022-11-25T08:23:44;92431.94;;;-11.03
72405;BMP280;60395;52.020;113.548;2022-11-25T08:26:50;92427.03;;;-11.11
72405;BMP280;60395;52.020;113.548;2022-11-25T08:29:53;92436.78;;;-11.17
72405;BMP280;60395;52.020;113.548;2022-11-25T08:32:56;92447.19;;;-11.22
72405;BMP280;60395;52.020;113.548;2022-11-25T08:36:00;92451.19;;;-11.29
72405;BMP280;60395;52.020;113.548;2022-11-25T08:39:06;92446.25;;;-11.36
72405;BMP280;60395;52.020;113.548;2022-11-25T08:42:29;92443.34;;;-11.43
72405;BMP280;60395;52.020;113.548;2022-11-25T08:45:33;92442.38;;;-11.47
72405;BMP280;60395;52.020;113.548;2022-11-25T08:48:36;92443.31;;;-11.52
72405;BMP280;60395;52.020;113.548;2022-11-25T08:51:40;92452.53;;;-11.57
72405;BMP280;60395;52.020;113.548;2022-11-25T08:54:43;92463.72;;;-11.60
72405;BMP280;60395;52.020;113.548;2022-11-25T08:57:46;92460.91;;;-11.64
72405;BMP280;60395;52.020;113.548;2022-11-25T09:00:49;92464.53;;;-11.67
72405;BMP280;60395;52.020;113.548;2022-11-25T09:03:54;92466.78;;;-11.71
72405;BMP280;60395;52.020;113.548;2022-11-25T09:06:57;92475.81;;;-11.78
72405;BMP280;60395;52.020;113.548;2022-11-25T09:10:00;92473.16;;;-11.80
72405;BMP280;60395;52.020;113.548;2022-11-25T09:13:03;92476.34;;;-11.79
72405;BMP280;60395;52.020;113.548;2022-11-25T09:16:07;92478.09;;;-11.82
72405;BMP280;60395;52.020;113.548;2022-11-25T09:19:11;92483.66;;;-11.83
72405;BMP280;60395;52.020;113.548;2022-11-25T09:22:14;92479.94;;;-11.82
72405;BMP280;60395;52.020;113.548;2022-11-25T09:25:17;92481.81;;;-11.83
72405;BMP280;60395;52.020;113.548;2022-11-25T09:28:21;92486.19;;;-11.83
72405;BMP280;60395;52.020;113.548;2022-11-25T09:31:24;92477.69;;;-11.88
72405;BMP280;60395;52.020;113.548;2022-11-25T09:34:27;92486.84;;;-11.92
72405;BMP280;60395;52.020;113.548;2022-11-25T09:37:30;92488.41;;;-11.97
72405;BMP280;60395;52.020;113.548;2022-11-25T09:40:48;92497.09;;;-12.00
72405;BMP280;60395;52.020;113.548;2022-11-25T09:44:28;92491.75;;;-12.04
72405;BMP280;60395;52.020;113.548;2022-11-25T09:51:33;92496.41;;;-12.10
72405;BMP280;60395;52.020;113.548;2022-11-25T09:54:43;92499.84;;;-12.15
72405;BMP280;60395;52.020;113.548;2022-11-25T10:01:17;92503.81;;;-12.22
72405;BMP280;60395;52.020;113.548;2022-11-25T10:04:47;92509.88;;;-12.25
72405;BMP280;60395;52.020;113.548;2022-11-25T10:07:54;92509.22;;;-12.25
72405;BMP280;60395;52.020;113.548;2022-11-25T10:15:02;92510.28;;;-12.28
72405;BMP280;60395;52.020;113.548;2022-11-25T10:18:00;92506.31;;;-12.31
72405;BMP280;60395;52.020;113.548;2022-11-25T10:21:06;92506.13;;;-12.33
72405;BMP280;60395;52.020;113.548;2022-11-25T10:24:15;92498.41;;;-12.35
72405;BMP280;60395;52.020;113.548;2022-11-25T10:34:22;92508.56;;;-12.53
72405;BMP280;60395;52.020;113.548;2022-11-25T10:37:33;92512.00;;;-12.58
72405;BMP280;60395;52.020;113.548;2022-11-25T10:40:38;92521.31;;;-12.60
72405;BMP280;60395;52.020;113.548;2022-11-25T10:43:41;92519.28;;;-12.62
72405;BMP280;60395;52.020;113.548;2022-11-25T10:50:23;92520.19;;;-12.67
72405;BMP280;60395;52.020;113.548;2022-11-25T10:53:29;92518.06;;;-12.70
72405;BMP280;60395;52.020;113.548;2022-11-25T10:56:41;92516.56;;;-12.73
72405;BMP280;60395;52.020;113.548;2022-11-25T10:59:56;92519.19;;;-12.81
72405;BMP280;60395;52.020;113.548;2022-11-25T11:03:26;92520.22;;;-12.84
72405;BMP280;60395;52.020;113.548;2022-11-25T11:06:36;92518.22;;;-12.86
72405;BMP280;60395;52.020;113.548;2022-11-25T11:09:39;92515.91;;;-12.91
72405;BMP280;60395;52.020;113.548;2022-11-25T11:13:05;92516.47;;;-12.93
72405;BMP280;60395;52.020;113.548;2022-11-25T11:19:29;92521.06;;;-12.99
72405;BMP280;60395;52.020;113.548;2022-11-25T11:22:35;92524.59;;;-13.02
72405;BMP280;60395;52.020;113.548;2022-11-25T11:25:40;92522.28;;;-13.07
72405;BMP280;60395;52.020;113.548;2022-11-25T11:28:43;92527.75;;;-13.11
72405;BMP280;60395;52.020;113.548;2022-11-25T11:31:51;92523.56;;;-13.16
72405;BMP280;60395;52.020;113.548;2022-11-25T11:35:07;92529.16;;;-13.18
72405;BMP280;60395;52.020;113.548;2022-11-25T11:38:28;92518.75;;;-13.22
72405;BMP280;60395;52.020;113.548;2022-11-25T11:41:47;92525.34;;;-13.26
72405;BMP280;60395;52.020;113.548;2022-11-25T11:48:11;92518.91;;;-13.37
72405;BMP280;60395;52.020;113.548;2022-11-25T11:51:19;92526.69;;;-13.43
72405;BMP280;60395;52.020;113.548;2022-11-25T11:54:45;92516.25;;;-13.47
72405;BMP280;60395;52.020;113.548;2022-11-25T12:04:44;92503.44;;;-13.58
72405;BMP280;60395;52.020;113.548;2022-11-25T12:11:13;92497.94;;;-13.72
72405;BMP280;60395;52.020;113.548;2022-11-25T12:17:31;92504.84;;;-13.72
72405;BMP280;60395;52.020;113.548;2022-11-25T12:21:01;92506.03;;;-13.73
72405;BMP280;60395;52.020;113.548;2022-11-25T12:27:41;92511.97;;;-13.79
72405;BMP280;60395;52.020;113.548;2022-11-25T12:34:49;92511.69;;;-13.90
72405;BMP280;60395;52.020;113.548;2022-11-25T12:44:30;92517.69;;;-14.03
72405;BMP280;60395;52.020;113.548;2022-11-25T12:47:36;92513.00;;;-14.06
72405;BMP280;60395;52.020;113.548;2022-11-25T12:57:30;92511.41;;;-14.19
72405;BMP280;60395;52.020;113.548;2022-11-25T13:04:28;92514.97;;;-14.30
72405;BMP280;60395;52.020;113.548;2022-11-25T13:07:42;92513.31;;;-14.35
72405;BMP280;60395;52.020;113.548;2022-11-25T13:17:12;92495.38;;;-14.47
72405;BMP280;60395;52.020;113.548;2022-11-25T13:23:40;92500.56;;;-14.45
72405;BMP280;60395;52.020;113.548;2022-11-25T13:26:50;92497.38;;;-14.45
72405;BMP280;60395;52.020;113.548;2022-11-25T13:29:54;92504.81;;;-14.47
72405;BMP280;60395;52.020;113.548;2022-11-25T13:36:22;92504.16;;;-14.48
72405;BMP280;60395;52.020;113.548;2022-11-25T13:39:34;92503.47;;;-14.48
72405;BMP280;60395;52.020;113.548;2022-11-25T13:42:42;92495.56;;;-14.52
72405;BMP280;60395;52.020;113.548;2022-11-25T13:45:46;92487.72;;;-14.56
72405;BMP280;60395;52.020;113.548;2022-11-25T13:48:49;92489.53;;;-14.57
72405;BMP280;60395;52.020;113.548;2022-11-25T13:52:03;92494.56;;;-14.57
72405;BMP280;60395;52.020;113.548;2022-11-25T13:55:35;92491.56;;;-14.55
72405;BMP280;60395;52.020;113.548;2022-11-25T13:58:38;92493.25;;;-14.58
72405;BMP280;60395;52.020;113.548;2022-11-25T14:09:11;92499.00;;;-14.65
72405;BMP280;60395;52.020;113.548;2022-11-25T14:12:32;92507.59;;;-14.68
72405;BMP280;60395;52.020;113.548;2022-11-25T14:29:54;92499.06;;;-14.88
72405;BMP280;60395;52.020;113.548;2022-11-25T14:33:02;92502.94;;;-14.87
72405;BMP280;60395;52.020;113.548;2022-11-25T14:36:23;92505.63;;;-14.92
72405;BMP280;60395;52.020;113.548;2022-11-25T14:43:04;92508.50;;;-14.96
72405;BMP280;60395;52.020;113.548;2022-11-25T14:49:17;92510.53;;;-15.02
72405;BMP280;60395;52.020;113.548;2022-11-25T14:52:40;92514.72;;;-15.04
72405;BMP280;60395;52.020;113.548;2022-11-25T14:55:47;92503.81;;;-15.07
72405;BMP280;60395;52.020;113.548;2022-11-25T14:58:51;92504.50;;;-15.06
72405;BMP280;60395;52.020;113.548;2022-11-25T15:01:55;92499.31;;;-15.08
72405;BMP280;60395;52.020;113.548;2022-11-25T15:08:16;92503.16;;;-15.15
72405;BMP280;60395;52.020;113.548;2022-11-25T15:11:22;92490.09;;;-15.21
72405;BMP280;60395;52.020;113.548;2022-11-25T15:14:27;92488.75;;;-15.22
72405;BMP280;60395;52.020;113.548;2022-11-25T15:17:32;92479.72;;;-15.25
72405;BMP280;60395;52.020;113.548;2022-11-25T15:20:39;92491.94;;;-15.29
72405;BMP280;60395;52.020;113.548;2022-11-25T15:23:42;92493.81;;;-15.30
72405;BMP280;60395;52.020;113.548;2022-11-25T15:26:53;92491.13;;;-15.32
72405;BMP280;60395;52.020;113.548;2022-11-25T15:29:56;92482.22;;;-15.33
72405;BMP280;60395;52.020;113.548;2022-11-25T15:33:00;92486.06;;;-15.32
72405;BMP280;60395;52.020;113.548;2022-11-25T15:36:05;92481.41;;;-15.35
72405;BMP280;60395;52.020;113.548;2022-11-25T15:39:15;92472.69;;;-15.42
72405;BMP280;60395;52.020;113.548;2022-11-25T15:42:25;92469.69;;;-15.48
72405;BMP280;60395;52.020;113.548;2022-11-25T15:45:42;92479.59;;;-15.58
72405;BMP280;60395;52.020;113.548;2022-11-25T15:48:47;92480.09;;;-15.59
72405;BMP280;60395;52.020;113.548;2022-11-25T15:52:05;92472.53;;;-15.59
72405;BMP280;60395;52.020;113.548;2022-11-25T15:55:29;92468.66;;;-15.68
72405;BMP280;60395;52.020;113.548;2022-11-25T15:58:33;92461.28;;;-15.74
72405;BMP280;60395;52.020;113.548;2022-11-25T16:01:37;92457.59;;;-15.73
72405;BMP280;60395;52.020;113.548;2022-11-25T16:04:40;92453.75;;;-15.74
72405;BMP280;60395;52.020;113.548;2022-11-25T16:10:54;92450.22;;;-15.70
72405;BMP280;60395;52.020;113.548;2022-11-25T16:14:18;92449.53;;;-15.71
72405;BMP280;60395;52.020;113.548;2022-11-25T16:17:25;92447.19;;;-15.77
72405;BMP280;60395;52.020;113.548;2022-11-25T16:20:28;92459.13;;;-15.85
72405;BMP280;60395;52.020;113.548;2022-11-25T16:23:39;92451.59;;;-15.92
72405;BMP280;60395;52.020;113.548;2022-11-25T16:26:54;92443.72;;;-15.96
72405;BMP280;60395;52.020;113.548;2022-11-25T16:33:08;92430.28;;;-15.99
72405;BMP280;60395;52.020;113.548;2022-11-25T16:36:12;92428.44;;;-15.98
72405;BMP280;60395;52.020;113.548;2022-11-25T16:39:15;92425.25;;;-15.99
72405;BMP280;60395;52.020;113.548;2022-11-25T16:42:20;92426.91;;;-15.94
72405;BMP280;60395;52.020;113.548;2022-11-25T16:45:25;92419.56;;;-15.92
72405;BMP280;60395;52.020;113.548;2022-11-25T16:48:29;92420.72;;;-15.93
72405;BMP280;60395;52.020;113.548;2022-11-25T16:51:32;92417.53;;;-16.01
72405;BMP280;60395;52.020;113.548;2022-11-25T16:54:35;92423.06;;;-16.18
72405;BMP280;60395;52.020;113.548;2022-11-25T16:57:41;92426.72;;;-16.42
72405;BMP280;60395;52.020;113.548;2022-11-25T17:00:47;92421.66;;;-16.57
72405;BMP280;60395;52.020;113.548;2022-11-25T17:03:51;92420.16;;;-16.60
72405;BMP280;60395;52.020;113.548;2022-11-25T17:06:54;92424.69;;;-16.58
72405;BMP280;60395;52.020;113.548;2022-11-25T17:10:21;92415.81;;;-16.52
72405;BMP280;60395;52.020;113.548;2022-11-25T17:13:24;92417.34;;;-16.49
72405;BMP280;60395;52.020;113.548;2022-11-25T17:16:27;92418.03;;;-16.41
72405;BMP280;60395;52.020;113.548;2022-11-25T17:19:31;92422.53;;;-16.39
72405;BMP280;60395;52.020;113.548;2022-11-25T17:22:34;92421.84;;;-16.47
72405;BMP280;60395;52.020;113.548;2022-11-25T17:25:42;92426.38;;;-16.46
72405;BMP280;60395;52.020;113.548;2022-11-25T17:28:55;92425.88;;;-16.44
72405;BMP280;60395;52.020;113.548;2022-11-25T17:32:00;92425.22;;;-16.45
72405;BMP280;60395;52.020;113.548;2022-11-25T17:35:08;92417.00;;;-16.45
72405;BMP280;60395;52.020;113.548;2022-11-25T17:38:19;92409.97;;;-16.47
72405;BMP280;60395;52.020;113.548;2022-11-25T17:41:23;92414.31;;;-16.55
72405;BMP280;60395;52.020;113.548;2022-11-25T17:44:28;92420.34;;;-16.50
72405;BMP280;60395;52.020;113.548;2022-11-25T17:47:31;92416.34;;;-16.46
72405;BMP280;60395;52.020;113.548;2022-11-25T17:50:34;92421.84;;;-16.55
72405;BMP280;60395;52.020;113.548;2022-11-25T17:53:39;92426.00;;;-16.65
72405;BMP280;60395;52.020;113.548;2022-11-25T17:56:45;92423.13;;;-16.77
72405;BMP280;60395;52.020;113.548;2022-11-25T17:59:53;92412.75;;;-16.81
72405;BMP280;60395;52.020;113.548;2022-11-25T18:02:56;92410.53;;;-16.84
72405;BMP280;60395;52.020;113.548;2022-11-25T18:05:59;92409.56;;;-16.81
72405;BMP280;60395;52.020;113.548;2022-11-25T18:09:04;92416.25;;;-16.91
72405;BMP280;60395;52.020;113.548;2022-11-25T18:12:28;92422.53;;;-17.06
72405;BMP280;60395;52.020;113.548;2022-11-25T18:15:32;92418.81;;;-17.12
72405;BMP280;60395;52.020;113.548;2022-11-25T18:18:36;92422.81;;;-17.17
72405;BMP280;60395;52.020;113.548;2022-11-25T18:21:39;92415.44;;;-17.22
72405;BMP280;60395;52.020;113.548;2022-11-25T18:24:43;92411.34;;;-17.33
72405;BMP280;60395;52.020;113.548;2022-11-25T18:27:47;92405.13;;;-17.40
72405;BMP280;60395;52.020;113.548;2022-11-25T18:30:51;92409.66;;;-17.38
72405;BMP280;60395;52.020;113.548;2022-11-25T18:33:58;92400.91;;;-17.45
72405;BMP280;60395;52.020;113.548;2022-11-25T18:37:01;92412.94;;;-17.51
72405;BMP280;60395;52.020;113.548;2022-11-25T18:40:05;92390.88;;;-17.45
72405;BMP280;60395;52.020;113.548;2022-11-25T18:43:17;92397.59;;;-17.47
72405;BMP280;60395;52.020;113.548;2022-11-25T18:46:21;92393.19;;;-17.54
72405;BMP280;60395;52.020;113.548;2022-11-25T18:49:24;92388.66;;;-17.56
72405;BMP280;60395;52.020;113.548;2022-11-25T18:52:28;92396.31;;;-17.61
72405;BMP280;60395;52.020;113.548;2022-11-25T18:55:32;92407.16;;;-17.67
72405;BMP280;60395;52.020;113.548;2022-11-25T18:58:36;92398.31;;;-17.88
72405;BMP280;60395;52.020;113.548;2022-11-25T19:01:39;92400.81;;;-17.96
72405;BMP280;60395;52.020;113.548;2022-11-25T19:04:50;92396.75;;;-17.99
72405;BMP280;60395;52.020;113.548;2022-11-25T19:07:54;92404.75;;;-18.01
72405;BMP280;60395;52.020;113.548;2022-11-25T19:10:57;92404.63;;;-17.95
72405;BMP280;60395;52.020;113.548;2022-11-25T19:14:08;92398.31;;;-17.88
72405;BMP280;60395;52.020;113.548;2022-11-25T19:17:19;92393.16;;;-17.90
72405;BMP280;60395;52.020;113.548;2022-11-25T19:20:23;92384.88;;;-17.99
72405;BMP280;60395;52.020;113.548;2022-11-25T19:23:27;92384.66;;;-18.08
72405;BMP280;60395;52.020;113.548;2022-11-25T19:26:34;92381.34;;;-18.03
72405;BMP280;60395;52.020;113.548;2022-11-25T19:29:40;92372.19;;;-18.01